createdAt,value
2023-04-10T00:00:03.979Z,80.40
2023-04-10T00:01:04.073Z,80.15
2023-04-10T00:02:03.999Z,79.88
2023-04-10T00:03:04.529Z,80.29
2023-04-10T00:04:04.015Z,81.61
2023-04-10T00:05:03.956Z,82.44
2023-04-10T00:06:03.948Z,83.51
2023-04-10T00:07:04.113Z,83.99
2023-04-10T00:08:03.905Z,84.13
2023-04-10T00:09:04.098Z,83.97
2023-04-10T00:10:04.063Z,85.31
2023-04-10T00:11:03.894Z,85.00
2023-04-10T00:12:03.954Z,85.31
2023-04-10T00:13:03.958Z,85.77
2023-04-10T00:14:04.088Z,85.77
2023-04-10T00:15:03.897Z,86.08
2023-04-10T00:16:03.883Z,85.66
2023-04-10T00:17:03.864Z,85.52
2023-04-10T00:18:03.862Z,85.00
2023-04-10T00:19:03.883Z,84.59
2023-04-10T00:20:03.832Z,85.21
2023-04-10T00:21:03.822Z,84.55
2023-04-10T00:22:03.835Z,84.13
2023-04-10T00:23:03.887Z,84.03
2023-04-10T00:24:03.812Z,83.68
2023-04-10T00:25:03.798Z,83.37
2023-04-10T00:26:03.795Z,83.06
2023-04-10T00:27:03.828Z,82.75
2023-04-10T00:28:03.834Z,82.60
2023-04-10T00:29:03.802Z,82.40
2023-04-10T00:30:03.794Z,81.57
2023-04-10T00:31:03.821Z,81.37
2023-04-10T00:32:03.834Z,80.50
2023-04-10T00:33:03.845Z,80.12
2023-04-10T00:34:03.734Z,80.02
2023-04-10T00:35:03.794Z,79.57
2023-04-10T00:36:03.740Z,79.26
2023-04-10T00:37:03.772Z,79.16
2023-04-10T00:38:03.753Z,79.05
2023-04-10T00:39:03.706Z,79.05
2023-04-10T00:40:03.721Z,79.16
2023-04-10T00:41:03.815Z,79.57
2023-04-10T00:42:03.714Z,78.95
2023-04-10T00:43:03.671Z,79.26
2023-04-10T00:44:03.772Z,79.47
2023-04-10T00:45:03.650Z,79.98
2023-04-10T00:46:03.742Z,80.54
2023-04-10T00:47:03.657Z,79.67
2023-04-10T00:48:03.714Z,80.33
2023-04-10T00:49:03.640Z,80.33
2023-04-10T00:50:03.661Z,79.88
2023-04-10T00:51:03.677Z,80.08
2023-04-10T00:52:03.654Z,79.50
2023-04-10T00:53:03.628Z,79.64
2023-04-10T00:54:03.602Z,81.41
2023-04-10T00:55:03.600Z,82.14
2023-04-10T00:56:03.637Z,83.42
2023-04-10T00:57:03.635Z,84.25
2023-04-10T00:58:03.592Z,84.88
2023-04-10T00:59:05.729Z,84.56
2023-04-10T01:00:03.666Z,84.70
2023-04-10T01:01:03.631Z,85.43
2023-04-10T01:02:03.794Z,85.68
2023-04-10T01:03:03.679Z,85.85
2023-04-10T01:04:03.743Z,86.26
2023-04-10T01:05:03.524Z,86.36
2023-04-10T01:06:03.552Z,86.26
2023-04-10T01:07:03.533Z,85.71
2023-04-10T01:08:03.565Z,85.14
2023-04-10T01:09:03.513Z,84.98
2023-04-10T01:10:03.490Z,85.43
2023-04-10T01:11:03.500Z,85.60
2023-04-10T01:12:03.518Z,85.91
2023-04-10T01:13:03.519Z,85.08
2023-04-10T01:14:03.521Z,85.25
2023-04-10T01:15:03.488Z,84.21
2023-04-10T01:16:03.469Z,83.45
2023-04-10T01:17:03.641Z,82.62
2023-04-10T01:18:03.505Z,82.72
2023-04-10T01:19:03.459Z,82.93
2023-04-10T01:20:03.463Z,83.45
2023-04-10T01:21:03.456Z,82.17
2023-04-10T01:22:03.428Z,82.37
2023-04-10T01:23:03.463Z,81.61
2023-04-10T01:24:03.415Z,81.51
2023-04-10T01:25:03.402Z,80.78
2023-04-10T01:26:03.417Z,80.05
2023-04-10T01:27:03.417Z,80.05
2023-04-10T01:28:03.373Z,80.47
2023-04-10T01:29:04.580Z,79.44
2023-04-10T01:30:03.416Z,79.23
2023-04-10T01:31:03.408Z,79.85
2023-04-10T01:32:03.385Z,79.44
2023-04-10T01:33:03.381Z,78.71
2023-04-10T01:34:03.342Z,78.71
2023-04-10T01:35:03.387Z,78.61
2023-04-10T01:36:03.451Z,78.61
2023-04-10T01:37:03.317Z,78.50
2023-04-10T01:38:03.325Z,78.71
2023-04-10T01:39:03.319Z,79.44
2023-04-10T01:40:03.376Z,79.16
2023-04-10T01:41:03.282Z,80.06
2023-04-10T01:42:03.318Z,81.45
2023-04-10T01:43:03.292Z,81.82
2023-04-10T01:44:03.258Z,82.34
2023-04-10T01:45:03.394Z,82.39
2023-04-10T01:46:03.289Z,82.45
2023-04-10T01:47:03.293Z,82.14
2023-04-10T01:48:03.306Z,81.72
2023-04-10T01:49:03.230Z,81.16
2023-04-10T01:50:03.239Z,81.27
2023-04-10T01:51:03.244Z,80.85
2023-04-10T01:52:03.254Z,80.13
2023-04-10T01:53:03.291Z,80.02
2023-04-10T01:54:04.549Z,79.61
2023-04-10T01:55:03.193Z,79.47
2023-04-10T01:56:03.248Z,79.58
2023-04-10T01:57:03.186Z,79.58
2023-04-10T01:58:03.197Z,79.68
2023-04-10T01:59:03.238Z,79.37
2023-04-10T02:00:03.301Z,79.06
2023-04-10T02:01:03.189Z,78.33
2023-04-10T02:02:03.302Z,78.54
2023-04-10T02:03:03.284Z,78.54
2023-04-10T02:04:03.239Z,78.75
2023-04-10T02:05:03.287Z,78.68
2023-04-10T02:06:03.135Z,78.58
2023-04-10T02:07:03.163Z,78.58
2023-04-10T02:08:03.178Z,79.44
2023-04-10T02:09:03.117Z,79.85
2023-04-10T02:10:03.099Z,80.27
2023-04-10T02:11:03.096Z,80.37
2023-04-10T02:12:03.095Z,80.62
2023-04-10T02:13:03.149Z,80.41
2023-04-10T02:14:03.142Z,81.35
2023-04-10T02:15:03.080Z,81.97
2023-04-10T02:16:04.333Z,81.56
2023-04-10T02:17:04.056Z,81.76
2023-04-10T02:18:03.082Z,81.87
2023-04-10T02:19:03.102Z,81.56
2023-04-10T02:20:03.024Z,81.35
2023-04-10T02:21:03.015Z,81.38
2023-04-10T02:22:04.013Z,81.73
2023-04-10T02:23:03.010Z,82.60
2023-04-10T02:24:03.055Z,83.43
2023-04-10T02:25:02.991Z,84.09
2023-04-10T02:26:02.989Z,85.55
2023-04-10T02:27:03.029Z,85.86
2023-04-10T02:28:02.983Z,85.20
2023-04-10T02:29:03.015Z,85.41
2023-04-10T02:30:02.979Z,84.47
2023-04-10T02:31:02.997Z,84.43
2023-04-10T02:32:02.959Z,83.87
2023-04-10T02:33:03.019Z,83.46
2023-04-10T02:34:02.975Z,83.15
2023-04-10T02:35:02.937Z,82.90
2023-04-10T02:36:02.994Z,82.73
2023-04-10T02:37:02.940Z,82.39
2023-04-10T02:38:02.912Z,82.07
2023-04-10T02:39:02.957Z,81.80
2023-04-10T02:40:02.945Z,83.18
2023-04-10T02:41:02.944Z,83.81
2023-04-10T02:42:02.881Z,84.43
2023-04-10T02:43:02.935Z,84.43
2023-04-10T02:44:02.892Z,84.74
2023-04-10T02:45:02.867Z,84.33
2023-04-10T02:46:02.889Z,84.43
2023-04-10T02:47:02.920Z,84.95
2023-04-10T02:48:03.022Z,84.33
2023-04-10T02:49:02.841Z,85.16
2023-04-10T02:50:02.884Z,84.74
2023-04-10T02:51:02.871Z,84.33
2023-04-10T02:52:02.864Z,84.29
2023-04-10T02:53:02.816Z,83.87
2023-04-10T02:54:02.837Z,83.04
2023-04-10T02:55:02.810Z,82.28
2023-04-10T02:56:02.889Z,81.97
2023-04-10T02:57:02.891Z,81.66
2023-04-10T02:58:02.802Z,81.66
2023-04-10T02:59:02.783Z,81.80
2023-04-10T03:00:02.806Z,82.46
2023-04-10T03:01:02.789Z,84.05
2023-04-10T03:02:03.206Z,84.43
2023-04-10T03:03:02.909Z,84.33
2023-04-10T03:04:02.822Z,83.81
2023-04-10T03:05:02.759Z,84.01
2023-04-10T03:06:02.774Z,83.95
2023-04-10T03:07:02.790Z,83.95
2023-04-10T03:08:02.724Z,84.72
2023-04-10T03:09:02.737Z,84.99
2023-04-10T03:10:02.711Z,84.92
2023-04-10T03:11:02.710Z,85.38
2023-04-10T03:12:02.738Z,85.75
2023-04-10T03:13:02.756Z,85.96
2023-04-10T03:14:02.694Z,85.75
2023-04-10T03:15:02.706Z,85.65
2023-04-10T03:16:02.742Z,85.20
2023-04-10T03:17:02.652Z,84.99
2023-04-10T03:18:02.733Z,84.78
2023-04-10T03:19:02.649Z,84.27
2023-04-10T03:20:02.632Z,84.12
2023-04-10T03:21:02.622Z,83.81
2023-04-10T03:22:02.645Z,83.70
2023-04-10T03:23:02.627Z,83.70
2023-04-10T03:24:02.683Z,83.04
2023-04-10T03:25:02.630Z,83.29
2023-04-10T03:26:02.647Z,83.39
2023-04-10T03:27:02.609Z,82.98
2023-04-10T03:28:02.626Z,83.74
2023-04-10T03:29:02.622Z,83.50
2023-04-10T03:30:02.614Z,84.22
2023-04-10T03:31:02.584Z,82.98
2023-04-10T03:32:13.307Z,82.98
2023-04-10T03:33:03.614Z,82.42
2023-04-10T03:34:02.599Z,81.90
2023-04-10T03:35:02.641Z,82.11
2023-04-10T03:36:02.610Z,82.25
2023-04-10T03:37:02.565Z,82.70
2023-04-10T03:38:02.545Z,83.99
2023-04-10T03:39:02.517Z,83.99
2023-04-10T03:40:02.566Z,84.30
2023-04-10T03:41:02.549Z,84.82
2023-04-10T03:42:02.618Z,84.92
2023-04-10T03:43:02.539Z,84.82
2023-04-10T03:44:02.480Z,84.47
2023-04-10T03:45:02.499Z,84.37
2023-04-10T03:46:03.557Z,83.91
2023-04-10T03:47:02.492Z,83.22
2023-04-10T03:48:02.515Z,83.01
2023-04-10T03:49:02.446Z,83.29
2023-04-10T03:50:02.488Z,82.87
2023-04-10T03:51:02.437Z,82.35
2023-04-10T03:52:02.416Z,81.80
2023-04-10T03:53:02.418Z,81.63
2023-04-10T03:54:02.443Z,81.49
2023-04-10T03:55:02.466Z,81.38
2023-04-10T03:56:02.457Z,81.38
2023-04-10T03:57:02.472Z,81.38
2023-04-10T03:58:02.404Z,81.38
2023-04-10T03:59:02.381Z,80.62
2023-04-10T04:00:02.415Z,80.87
2023-04-10T04:01:02.403Z,80.97
2023-04-10T04:02:02.429Z,80.55
2023-04-10T04:03:02.576Z,80.31
2023-04-10T04:04:02.519Z,80.35
2023-04-10T04:05:02.442Z,80.14
2023-04-10T04:06:02.380Z,80.55
2023-04-10T04:07:02.401Z,80.55
2023-04-10T04:08:02.350Z,80.97
2023-04-10T04:09:02.316Z,80.76
2023-04-10T04:10:02.337Z,80.18
2023-04-10T04:11:02.291Z,80.66
2023-04-10T04:12:02.348Z,80.76
2023-04-10T04:13:02.299Z,81.28
2023-04-10T04:14:02.398Z,81.38
2023-04-10T04:15:02.280Z,81.07
2023-04-10T04:16:02.269Z,80.66
2023-04-10T04:17:02.338Z,80.35
2023-04-10T04:18:02.314Z,80.45
2023-04-10T04:19:02.303Z,80.45
2023-04-10T04:20:02.314Z,80.49
2023-04-10T04:21:02.239Z,80.80
2023-04-10T04:22:02.256Z,81.21
2023-04-10T04:23:02.216Z,81.42
2023-04-10T04:24:02.238Z,81.56
2023-04-10T04:25:02.246Z,81.42
2023-04-10T04:26:02.197Z,81.52
2023-04-10T04:27:02.213Z,81.42
2023-04-10T04:28:02.213Z,80.80
2023-04-10T04:29:02.249Z,80.18
2023-04-10T04:30:02.180Z,80.07
2023-04-10T04:31:02.180Z,80.49
2023-04-10T04:32:02.191Z,80.28
2023-04-10T04:33:02.184Z,80.59
2023-04-10T04:34:02.252Z,80.76
2023-04-10T04:35:02.153Z,80.38
2023-04-10T04:36:02.283Z,80.76
2023-04-10T04:37:02.160Z,80.35
2023-04-10T04:38:02.129Z,80.35
2023-04-10T04:39:02.154Z,79.72
2023-04-10T04:40:02.204Z,80.04
2023-04-10T04:41:02.097Z,80.55
2023-04-10T04:42:02.090Z,80.04
2023-04-10T04:43:02.114Z,80.55
2023-04-10T04:44:02.110Z,80.35
2023-04-10T04:45:02.109Z,80.45
2023-04-10T04:46:02.126Z,80.35
2023-04-10T04:47:02.077Z,80.76
2023-04-10T04:48:02.117Z,80.62
2023-04-10T04:49:02.149Z,79.93
2023-04-10T04:50:02.098Z,80.14
2023-04-10T04:51:02.041Z,79.93
2023-04-10T04:52:02.088Z,80.59
2023-04-10T04:53:02.033Z,80.18
2023-04-10T04:54:02.026Z,81.63
2023-04-10T04:55:02.071Z,81.63
2023-04-10T04:56:02.078Z,81.42
2023-04-10T04:57:02.006Z,80.87
2023-04-10T04:58:02.011Z,80.59
2023-04-10T04:59:01.990Z,80.42
2023-04-10T05:00:02.074Z,81.35
2023-04-10T05:01:02.054Z,81.98
2023-04-10T05:02:02.200Z,81.84
2023-04-10T05:03:02.108Z,81.49
2023-04-10T05:04:02.129Z,81.28
2023-04-10T05:05:02.007Z,80.55
2023-04-10T05:06:01.976Z,80.10
2023-04-10T05:07:01.996Z,79.75
2023-04-10T05:08:01.955Z,79.41
2023-04-10T05:09:01.959Z,78.54
2023-04-10T05:10:01.963Z,77.19
2023-04-10T05:11:01.926Z,76.53
2023-04-10T05:12:01.946Z,76.40
2023-04-10T05:13:01.922Z,75.74
2023-04-10T05:14:01.944Z,74.08
2023-04-10T05:15:01.885Z,74.60
2023-04-10T05:16:01.896Z,73.74
2023-04-10T05:17:03.637Z,73.74
2023-04-10T05:18:02.978Z,73.08
2023-04-10T05:19:01.915Z,72.57
2023-04-10T05:20:01.859Z,72.19
2023-04-10T05:21:01.833Z,71.33
2023-04-10T05:22:01.883Z,70.61
2023-04-10T05:23:01.827Z,69.65
2023-04-10T05:24:01.837Z,69.96
2023-04-10T05:25:01.843Z,69.75
2023-04-10T05:26:01.804Z,69.24
2023-04-10T05:27:01.893Z,69.48
2023-04-10T05:28:01.798Z,70.54
2023-04-10T05:29:01.823Z,71.12
2023-04-10T05:30:01.801Z,73.54
2023-04-10T05:31:01.780Z,74.05
2023-04-10T05:32:01.846Z,73.94
2023-04-10T05:33:01.891Z,73.71
2023-04-10T05:34:01.856Z,73.57
2023-04-10T05:35:01.757Z,73.02
2023-04-10T05:36:01.907Z,72.36
2023-04-10T05:37:01.743Z,72.09
2023-04-10T05:38:01.803Z,70.86
2023-04-10T05:39:01.745Z,70.65
2023-04-10T05:40:01.732Z,70.54
2023-04-10T05:41:01.731Z,70.54
2023-04-10T05:42:01.705Z,70.54
2023-04-10T05:43:01.739Z,69.48
2023-04-10T05:44:01.713Z,69.69
2023-04-10T05:45:01.688Z,69.45
2023-04-10T05:46:01.827Z,69.27
2023-04-10T05:47:01.684Z,69.14
2023-04-10T05:48:01.788Z,68.93
2023-04-10T05:49:01.726Z,69.83
2023-04-10T05:50:01.706Z,68.62
2023-04-10T05:51:01.722Z,70.00
2023-04-10T05:52:01.668Z,69.65
2023-04-10T05:53:01.650Z,69.89
2023-04-10T05:54:01.690Z,70.68
2023-04-10T05:55:01.635Z,69.48
2023-04-10T05:56:01.641Z,70.99
2023-04-10T05:57:01.666Z,72.33
2023-04-10T05:58:01.625Z,72.74
2023-04-10T05:59:01.601Z,72.30
2023-04-10T06:00:01.596Z,73.50
2023-04-10T06:01:01.640Z,73.91
2023-04-10T06:02:01.684Z,74.53
2023-04-10T06:03:01.657Z,75.87
2023-04-10T06:04:01.724Z,74.50
2023-04-10T06:05:01.595Z,72.92
2023-04-10T06:06:01.602Z,72.47
2023-04-10T06:07:01.549Z,72.06
2023-04-10T06:08:01.571Z,72.19
2023-04-10T06:09:01.550Z,73.43
2023-04-10T06:10:01.506Z,73.85
2023-04-10T06:11:01.547Z,74.36
2023-04-10T06:12:01.523Z,73.12
2023-04-10T06:13:01.547Z,74.15
2023-04-10T06:14:01.498Z,74.22
2023-04-10T06:15:01.500Z,73.47
2023-04-10T06:16:02.160Z,72.54
2023-04-10T06:17:01.484Z,73.88
2023-04-10T06:18:01.577Z,72.40
2023-04-10T06:19:01.487Z,73.50
2023-04-10T06:20:01.536Z,73.43
2023-04-10T06:21:01.469Z,73.54
2023-04-10T06:22:01.529Z,74.53
2023-04-10T06:23:01.438Z,73.02
2023-04-10T06:24:01.452Z,74.95
2023-04-10T06:25:01.449Z,73.91
2023-04-10T06:26:01.497Z,73.91
2023-04-10T06:27:01.536Z,74.46
2023-04-10T06:28:01.440Z,76.15
2023-04-10T06:29:01.519Z,76.46
2023-04-10T06:30:01.375Z,75.91
2023-04-10T06:31:01.531Z,76.01
2023-04-10T06:32:01.412Z,76.15
2023-04-10T06:33:01.403Z,76.53
2023-04-10T06:34:01.427Z,75.98
2023-04-10T06:35:01.571Z,78.25
2023-04-10T06:36:01.410Z,78.01
2023-04-10T06:37:01.462Z,78.18
2023-04-10T06:38:01.476Z,77.31
2023-04-10T06:39:01.354Z,75.81
2023-04-10T06:40:01.399Z,77.94
2023-04-10T06:41:01.328Z,77.11
2023-04-10T06:42:01.359Z,76.15
2023-04-10T06:43:01.412Z,74.77
2023-04-10T06:44:03.287Z,75.73
2023-04-10T06:45:02.426Z,77.83
2023-04-10T06:46:01.590Z,77.48
2023-04-10T06:47:01.444Z,75.70
2023-04-10T06:48:01.467Z,76.42
2023-04-10T06:49:01.345Z,77.45
2023-04-10T06:50:01.339Z,76.11
2023-04-10T06:51:01.404Z,76.45
2023-04-10T06:52:01.398Z,75.29
2023-04-10T06:53:01.342Z,75.46
2023-04-10T06:54:01.341Z,75.83
2023-04-10T06:55:01.353Z,75.80
2023-04-10T06:56:03.365Z,73.27
2023-04-10T06:57:01.345Z,73.06
2023-04-10T06:58:01.373Z,73.23
2023-04-10T06:59:01.368Z,74.12
2023-04-10T07:00:01.265Z,73.30
2023-04-10T07:01:01.489Z,72.34
2023-04-10T07:02:01.479Z,71.59
2023-04-10T07:03:01.363Z,72.11
2023-04-10T07:04:01.291Z,70.36
2023-04-10T07:05:01.209Z,71.80
2023-04-10T07:06:01.233Z,70.57
2023-04-10T07:07:01.196Z,70.16
2023-04-10T07:08:01.421Z,68.93
2023-04-10T07:09:01.200Z,70.36
2023-04-10T07:10:01.484Z,70.47
2023-04-10T07:11:01.296Z,70.81
2023-04-10T07:12:01.289Z,71.59
2023-04-10T07:13:01.321Z,70.87
2023-04-10T07:14:01.157Z,71.08
2023-04-10T07:15:01.208Z,71.56
2023-04-10T07:16:01.212Z,71.77
2023-04-10T07:17:01.244Z,71.12
2023-04-10T07:18:01.269Z,71.01
2023-04-10T07:19:01.257Z,72.65
2023-04-10T07:20:01.154Z,71.01
2023-04-10T07:21:01.129Z,69.48
2023-04-10T07:22:01.200Z,69.89
2023-04-10T07:23:01.281Z,71.19
2023-04-10T07:24:01.151Z,70.54
2023-04-10T07:25:01.106Z,71.39
2023-04-10T07:26:01.118Z,70.34
2023-04-10T07:27:01.108Z,71.36
2023-04-10T07:28:01.093Z,71.97
2023-04-10T07:29:01.117Z,71.05
2023-04-10T07:30:01.232Z,68.01
2023-04-10T07:31:01.077Z,68.93
2023-04-10T07:32:01.180Z,68.42
2023-04-10T07:33:01.379Z,67.10
2023-04-10T07:34:01.246Z,68.63
2023-04-10T07:35:01.176Z,70.61
2023-04-10T07:36:01.093Z,69.82
2023-04-10T07:37:01.068Z,71.66
2023-04-10T07:38:01.047Z,70.03
2023-04-10T07:39:01.121Z,71.53
2023-04-10T07:40:01.148Z,72.11
2023-04-10T07:41:01.148Z,72.00
2023-04-10T07:42:01.125Z,72.00
2023-04-10T07:43:01.050Z,72.58
2023-04-10T07:44:01.144Z,69.71
2023-04-10T07:45:01.023Z,71.01
2023-04-10T07:46:01.041Z,71.90
2023-04-10T07:47:01.021Z,69.85
2023-04-10T07:48:00.998Z,70.13
2023-04-10T07:49:01.138Z,72.69
2023-04-10T07:50:01.031Z,69.48
2023-04-10T07:51:01.030Z,69.04
2023-04-10T07:52:00.974Z,68.91
2023-04-10T07:53:01.009Z,68.40
2023-04-10T07:54:00.974Z,68.67
2023-04-10T07:55:00.949Z,66.39
2023-04-10T07:56:01.028Z,64.76
2023-04-10T07:57:01.024Z,64.76
2023-04-10T07:58:01.055Z,64.87
2023-04-10T07:59:00.954Z,65.07
2023-04-10T08:00:00.950Z,64.94
2023-04-10T08:01:01.003Z,65.92
2023-04-10T08:02:01.014Z,63.99
2023-04-10T08:03:01.259Z,63.76
2023-04-10T08:04:03.863Z,61.93
2023-04-10T08:05:00.998Z,63.83
2023-04-10T08:06:00.928Z,64.31
2023-04-10T08:07:01.028Z,63.29
2023-04-10T08:08:00.934Z,62.98
2023-04-10T08:09:00.930Z,62.65
2023-04-10T08:10:00.862Z,62.41
2023-04-10T08:11:00.849Z,62.35
2023-04-10T08:12:00.852Z,60.52
2023-04-10T08:13:00.880Z,62.93
2023-04-10T08:14:00.851Z,63.00
2023-04-10T08:15:00.838Z,61.47
2023-04-10T08:16:00.907Z,59.84
2023-04-10T08:17:00.887Z,59.82
2023-04-10T08:18:00.868Z,61.34
2023-04-10T08:19:00.831Z,61.14
2023-04-10T08:20:00.782Z,60.43
2023-04-10T08:21:00.842Z,61.62
2023-04-10T08:22:00.788Z,59.97
2023-04-10T08:23:09.179Z,61.18
2023-04-10T08:24:02.770Z,59.36
2023-04-10T08:25:00.768Z,58.76
2023-04-10T08:26:00.762Z,59.91
2023-04-10T08:27:00.758Z,59.88
2023-04-10T08:28:00.766Z,61.07
2023-04-10T08:29:00.889Z,62.16
2023-04-10T08:30:00.732Z,61.75
2023-04-10T08:31:00.748Z,59.48
2023-04-10T08:32:00.748Z,58.02
2023-04-10T08:33:00.716Z,57.31
2023-04-10T08:34:00.796Z,57.89
2023-04-10T08:35:00.697Z,56.90
2023-04-10T08:36:00.700Z,57.79
2023-04-10T08:37:00.670Z,58.91
2023-04-10T08:38:12.620Z,59.11
2023-04-10T08:39:02.685Z,58.73
2023-04-10T08:40:00.651Z,59.44
2023-04-10T08:41:00.655Z,61.55
2023-04-10T08:42:00.652Z,61.52
2023-04-10T08:43:00.639Z,57.53
2023-04-10T08:44:00.668Z,57.53
2023-04-10T08:45:00.652Z,56.29
2023-04-10T08:46:00.640Z,57.33
2023-04-10T08:47:00.610Z,58.92
2023-04-10T08:48:00.680Z,56.67
2023-04-10T08:49:00.655Z,56.57
2023-04-10T08:50:00.620Z,55.25
2023-04-10T08:51:00.573Z,56.36
2023-04-10T08:52:00.618Z,55.55
2023-04-10T08:53:00.597Z,56.46
2023-04-10T08:54:00.561Z,55.45
2023-04-10T08:55:00.589Z,56.57
2023-04-10T08:56:00.542Z,54.94
2023-04-10T08:57:00.573Z,53.85
2023-04-10T08:58:01.725Z,55.37
2023-04-10T08:59:01.511Z,57.17
2023-04-10T09:00:04.039Z,54.82
2023-04-10T09:01:01.498Z,54.21
2023-04-10T09:02:00.523Z,55.93
2023-04-10T09:03:00.645Z,54.24
2023-04-10T09:04:01.075Z,54.11
2023-04-10T09:05:00.513Z,54.41
2023-04-10T09:06:00.476Z,54.21
2023-04-10T09:07:00.530Z,54.92
2023-04-10T09:08:00.457Z,56.21
2023-04-10T09:10:00.452Z,55.70
2023-04-10T09:11:00.443Z,54.28
2023-04-10T09:12:00.747Z,56.71
2023-04-10T09:13:00.396Z,56.71
2023-04-10T09:14:00.390Z,53.96
2023-04-10T09:15:00.422Z,53.85
2023-04-10T09:16:00.651Z,55.88
2023-04-10T09:17:00.413Z,53.75
2023-04-10T09:18:00.379Z,55.40
2023-04-10T09:19:00.361Z,53.78
2023-04-10T09:20:00.384Z,53.88
2023-04-10T09:21:00.405Z,54.59
2023-04-10T09:22:00.334Z,53.19
2023-04-10T09:23:00.310Z,53.70
2023-04-10T09:24:00.316Z,53.78
2023-04-10T09:25:00.324Z,53.58
2023-04-10T09:26:00.339Z,54.59
2023-04-10T09:27:00.286Z,54.18
2023-04-10T09:28:00.333Z,52.66
2023-04-10T09:29:00.300Z,53.07
2023-04-10T09:30:00.252Z,55.60
2023-04-10T09:31:00.259Z,53.58
2023-04-10T09:32:00.228Z,53.17
2023-04-10T09:33:02.000Z,52.56
2023-04-10T09:34:00.237Z,53.88
2023-04-10T09:35:00.225Z,53.96
2023-04-10T09:36:00.270Z,51.32
2023-04-10T09:37:00.244Z,51.42
2023-04-10T09:38:00.228Z,52.31
2023-04-10T09:39:00.206Z,50.38
2023-04-10T09:40:00.192Z,49.70
2023-04-10T09:41:00.182Z,52.33
2023-04-10T09:42:00.169Z,52.23
2023-04-10T09:43:00.191Z,52.33
2023-04-10T09:44:00.156Z,52.41
2023-04-10T09:45:00.236Z,50.79
2023-04-10T09:46:00.135Z,50.49
2023-04-10T09:47:00.343Z,50.69
2023-04-10T09:48:00.237Z,50.69
2023-04-10T09:49:00.123Z,50.38
2023-04-10T09:50:00.204Z,51.09
2023-04-10T09:51:00.108Z,49.88
2023-04-10T09:52:00.138Z,51.50
2023-04-10T09:53:00.119Z,49.70
2023-04-10T09:54:00.061Z,49.10
2023-04-10T09:55:00.125Z,50.92
2023-04-10T09:56:00.116Z,51.81
2023-04-10T09:57:00.042Z,53.65
2023-04-10T09:58:00.040Z,52.44
2023-04-10T09:59:00.115Z,52.23
2023-04-10T10:00:00.129Z,50.92
2023-04-10T10:01:00.085Z,51.93
2023-04-10T10:02:00.105Z,50.79
2023-04-10T10:03:00.065Z,50.49
2023-04-10T10:04:00.021Z,49.15
2023-04-10T10:05:00.069Z,49.53
2023-04-10T10:05:59.989Z,50.34
2023-04-10T10:06:59.966Z,51.15
2023-04-10T10:07:59.942Z,49.63
2023-04-10T10:08:59.925Z,49.61
2023-04-10T10:09:59.934Z,49.81
2023-04-10T10:10:59.986Z,50.42
2023-04-10T10:11:59.909Z,48.50
2023-04-10T10:12:59.960Z,50.14
2023-04-10T10:13:59.902Z,49.86
2023-04-10T10:14:59.905Z,49.55
2023-04-10T10:15:59.953Z,49.45
2023-04-10T10:16:59.906Z,49.05
2023-04-10T10:17:59.982Z,48.95
2023-04-10T10:18:59.862Z,49.53
2023-04-10T10:19:59.860Z,50.04
2023-04-10T10:20:59.891Z,53.45
2023-04-10T10:21:59.889Z,51.53
2023-04-10T10:22:59.858Z,50.42
2023-04-10T10:23:59.904Z,49.81
2023-04-10T10:24:59.818Z,49.79
2023-04-10T10:26:01.695Z,48.82
2023-04-10T10:26:59.888Z,48.42
2023-04-10T10:27:59.811Z,47.43
2023-04-10T10:28:59.800Z,48.52
2023-04-10T10:30:01.265Z,49.53
2023-04-10T10:31:00.777Z,48.62
2023-04-10T10:31:59.970Z,49.25
2023-04-10T10:32:59.937Z,49.96
2023-04-10T10:33:59.759Z,49.33
2023-04-10T10:34:59.762Z,49.86
2023-04-10T10:35:59.742Z,50.14
2023-04-10T10:36:59.797Z,50.95
2023-04-10T10:37:59.725Z,51.23
2023-04-10T10:38:59.852Z,49.38
2023-04-10T10:39:59.704Z,50.62
2023-04-10T10:40:59.713Z,49.69
2023-04-10T10:41:59.867Z,50.59
2023-04-10T10:43:00.719Z,50.90
2023-04-10T10:43:59.681Z,49.58
2023-04-10T10:44:59.829Z,53.20
2023-04-10T10:45:59.769Z,49.76
2023-04-10T10:47:00.647Z,49.69
2023-04-10T10:47:59.723Z,49.38
2023-04-10T10:48:59.645Z,49.79
2023-04-10T10:49:59.652Z,48.68
2023-04-10T10:50:59.636Z,48.85
2023-04-10T10:51:59.617Z,49.58
2023-04-10T10:52:59.686Z,52.21
2023-04-10T10:53:59.629Z,49.76
2023-04-10T10:54:59.927Z,48.33
2023-04-10T10:56:00.603Z,47.04
2023-04-10T10:56:59.590Z,48.58
2023-04-10T10:57:59.631Z,49.87
2023-04-10T10:58:59.573Z,48.96
2023-04-10T10:59:59.552Z,48.17
2023-04-10T11:00:59.605Z,49.18
2023-04-10T11:01:59.613Z,48.35
2023-04-10T11:02:59.621Z,48.25
2023-04-10T11:03:59.607Z,48.96
2023-04-10T11:04:59.538Z,46.43
2023-04-10T11:05:59.564Z,45.73
2023-04-10T11:06:59.546Z,46.64
2023-04-10T11:07:59.514Z,46.45
2023-04-10T11:08:59.521Z,46.56
2023-04-10T11:09:59.487Z,46.94
2023-04-10T11:10:59.501Z,46.64
2023-04-10T11:11:59.496Z,45.73
2023-04-10T11:12:59.465Z,46.15
2023-04-10T11:13:59.520Z,46.36
2023-04-10T11:14:59.463Z,46.86
2023-04-10T11:15:59.486Z,47.14
2023-04-10T11:16:59.517Z,46.43
2023-04-10T11:17:59.475Z,47.32
2023-04-10T11:19:13.117Z,48.53
2023-04-10T11:20:01.417Z,47.09
2023-04-10T11:20:59.423Z,46.89
2023-04-10T11:21:59.441Z,45.78
2023-04-10T11:22:59.391Z,46.71
2023-04-10T11:23:59.494Z,45.38
2023-04-10T11:24:59.405Z,43.38
2023-04-10T11:25:59.377Z,43.10
2023-04-10T11:26:59.413Z,43.91
2023-04-10T11:27:59.370Z,44.01
2023-04-10T11:28:59.353Z,44.29
2023-04-10T11:29:59.387Z,44.79
2023-04-10T11:30:59.342Z,43.59
2023-04-10T11:31:59.392Z,44.70
2023-04-10T11:32:59.331Z,43.51
2023-04-10T11:33:59.303Z,45.73
2023-04-10T11:34:59.310Z,47.04
2023-04-10T11:35:59.350Z,44.21
2023-04-10T11:36:59.299Z,43.93
2023-04-10T11:37:59.269Z,46.36
2023-04-10T11:38:59.275Z,45.57
2023-04-10T11:39:59.253Z,46.48
2023-04-10T11:40:59.308Z,47.08
2023-04-10T11:41:59.302Z,46.68
2023-04-10T11:42:59.284Z,46.78
2023-04-10T11:44:00.243Z,48.50
2023-04-10T11:44:59.265Z,47.19
2023-04-10T11:45:59.310Z,46.48
2023-04-10T11:46:59.240Z,47.97
2023-04-10T11:47:59.337Z,46.78
2023-04-10T11:48:59.234Z,47.77
2023-04-10T11:49:59.218Z,46.66
2023-04-10T11:50:59.191Z,44.54
2023-04-10T11:51:59.220Z,45.14
2023-04-10T11:52:59.180Z,46.15
2023-04-10T11:53:59.184Z,47.14
2023-04-10T11:54:59.153Z,46.92
2023-04-10T11:55:59.144Z,46.41
2023-04-10T11:56:59.203Z,49.76
2023-04-10T11:57:59.179Z,47.22
2023-04-10T11:58:59.136Z,47.52
2023-04-10T11:59:59.109Z,46.69
2023-04-10T12:00:59.141Z,44.59
2023-04-10T12:01:59.237Z,47.92
2023-04-10T12:02:59.198Z,46.41
2023-04-10T12:03:59.262Z,45.48
2023-04-10T12:04:59.120Z,46.49
2023-04-10T12:05:59.071Z,45.07
2023-04-10T12:06:59.070Z,46.49
2023-04-10T12:07:59.094Z,44.49
2023-04-10T12:08:59.123Z,45.32
2023-04-10T12:09:59.058Z,47.04
2023-04-10T12:10:59.042Z,45.12
2023-04-10T12:11:59.044Z,46.25
2023-04-10T12:12:59.150Z,44.84
2023-04-10T12:13:59.079Z,46.66
2023-04-10T12:14:59.057Z,46.66
2023-04-10T12:15:59.133Z,46.43
2023-04-10T12:16:59.021Z,44.23
2023-04-10T12:17:59.206Z,45.54
2023-04-10T12:18:59.031Z,45.02
2023-04-10T12:19:58.985Z,45.32
2023-04-10T12:20:58.975Z,45.45
2023-04-10T12:21:59.008Z,44.11
2023-04-10T12:22:58.953Z,44.13
2023-04-10T12:23:58.976Z,46.86
2023-04-10T12:24:59.018Z,47.14
2023-04-10T12:25:58.968Z,48.65
2023-04-10T12:26:59.681Z,49.16
2023-04-10T12:27:58.939Z,49.16
2023-04-10T12:28:58.913Z,48.15
2023-04-10T12:29:58.966Z,47.85
2023-04-10T12:30:58.939Z,47.64
2023-04-10T12:31:58.970Z,47.24
2023-04-10T12:32:58.970Z,46.53
2023-04-10T12:33:59.092Z,46.23
2023-04-10T12:34:59.294Z,45.22
2023-04-10T12:35:58.904Z,46.45
2023-04-10T12:36:58.909Z,45.25
2023-04-10T12:37:58.930Z,47.87
2023-04-10T12:38:58.887Z,46.05
2023-04-10T12:39:58.933Z,44.82
2023-04-10T12:40:58.847Z,45.14
2023-04-10T12:41:58.848Z,47.14
2023-04-10T12:42:58.814Z,43.73
2023-04-10T12:43:58.848Z,45.47
2023-04-10T12:44:58.873Z,46.56
2023-04-10T12:45:58.818Z,43.65
2023-04-10T12:46:58.835Z,45.25
2023-04-10T12:47:58.838Z,44.84
2023-04-10T12:48:58.791Z,46.88
2023-04-10T12:49:58.772Z,47.06
2023-04-10T12:50:58.795Z,46.88
2023-04-10T12:51:58.799Z,45.16
2023-04-10T12:52:58.807Z,44.94